createdAt,value
2023-01-01T00:01:27.355Z,10.10
2023-01-01T00:03:56.509Z,10.10
2023-01-01T00:06:24.441Z,10.10
2023-01-01T00:09:13.888Z,10.10
2023-01-01T00:11:40.579Z,10.10
2023-01-01T00:14:12.251Z,10.20
2023-01-01T00:16:39.505Z,10.20
2023-01-01T00:19:06.483Z,10.20
2023-01-01T00:21:33.229Z,10.30
2023-01-01T00:24:00.029Z,10.20
2023-01-01T00:26:31.058Z,10.10
2023-01-01T00:29:02.061Z,9.90
2023-01-01T00:31:29.019Z,9.90
2023-01-01T00:33:56.710Z,10.00
2023-01-01T00:36:27.240Z,10.10
2023-01-01T00:38:54.277Z,10.10
2023-01-01T00:41:21.645Z,10.20
2023-01-01T00:43:48.732Z,10.10
2023-01-01T00:46:15.487Z,10.10
2023-01-01T00:48:42.305Z,10.10
2023-01-01T00:51:09.496Z,10.10
2023-01-01T00:53:36.623Z,10.20
2023-01-01T00:56:04.255Z,10.20
2023-01-01T00:58:31.413Z,10.00
2023-01-01T01:00:58.254Z,10.10
2023-01-01T01:03:30.900Z,10.20
2023-01-01T01:06:10.995Z,10.10
2023-01-01T01:08:40.389Z,10.10
2023-01-01T01:11:12.929Z,10.20
2023-01-01T01:13:40.580Z,10.20
2023-01-01T01:16:27.646Z,10.20
2023-01-01T01:18:57.520Z,9.90
2023-01-01T01:21:24.737Z,9.90
2023-01-01T01:23:52.611Z,10.00
2023-01-01T01:26:24.796Z,10.10
2023-01-01T01:28:53.205Z,10.20
2023-01-01T01:31:22.280Z,10.50
2023-01-01T01:33:49.686Z,10.40
2023-01-01T01:36:17.775Z,10.40
2023-01-01T01:38:45.200Z,10.40
2023-01-01T01:41:27.347Z,10.40
2023-01-01T01:44:07.005Z,10.40
2023-01-01T01:46:42.966Z,10.30
2023-01-01T01:49:26.466Z,10.40
2023-01-01T01:51:54.160Z,10.40
2023-01-01T01:54:24.290Z,10.30
2023-01-01T01:57:12.275Z,10.40
2023-01-01T01:59:45.129Z,10.40
2023-01-01T02:02:22.682Z,10.40
2023-01-01T02:04:49.797Z,10.50
2023-01-01T02:07:17.949Z,10.40
2023-01-01T02:09:45.446Z,10.50
2023-01-01T02:12:12.251Z,10.50
2023-01-01T02:14:39.189Z,10.40
2023-01-01T02:17:14.421Z,10.20
2023-01-01T02:19:53.590Z,10.10
2023-01-01T02:23:02.338Z,9.90
2023-01-01T02:26:06.346Z,9.90
2023-01-01T02:28:57.854Z,9.80
2023-01-01T02:31:29.968Z,9.80
2023-01-01T02:34:01.838Z,9.90
2023-01-01T02:36:31.705Z,10.00
2023-01-01T02:39:01.344Z,10.00
2023-01-01T02:41:36.321Z,10.00
2023-01-01T02:46:34.824Z,9.80
2023-01-01T02:49:07.912Z,9.80
2023-01-01T02:52:08.042Z,9.70
2023-01-01T02:54:58.597Z,9.50
2023-01-01T02:57:35.559Z,9.50
2023-01-01T03:00:19.293Z,9.50
2023-01-01T03:03:14.582Z,9.40
2023-01-01T03:06:05.947Z,9.40
2023-01-01T03:08:47.518Z,9.40
2023-01-01T03:11:18.599Z,9.50
2023-01-01T03:13:51.835Z,9.50
2023-01-01T03:16:43.376Z,9.50
2023-01-01T03:19:22.103Z,9.70
2023-01-01T03:21:57.529Z,9.60
2023-01-01T03:24:38.139Z,9.40
2023-01-01T03:27:28.463Z,9.30
2023-01-01T03:29:59.585Z,9.30
2023-01-01T03:33:00.165Z,9.50
2023-01-01T03:35:54.129Z,9.50
2023-01-01T03:38:25.440Z,9.60
2023-01-01T03:40:56.536Z,9.70
2023-01-01T03:43:45.489Z,9.80
2023-01-01T03:46:14.028Z,9.60
2023-01-01T03:49:02.612Z,9.70
2023-01-01T03:51:42.037Z,9.60
2023-01-01T03:54:33.271Z,9.80
2023-01-01T03:57:15.563Z,9.80
2023-01-01T04:00:00.714Z,9.90
2023-01-01T04:02:55.073Z,9.90
2023-01-01T04:05:23.603Z,10.00
2023-01-01T04:10:18.215Z,10.10
2023-01-01T04:12:47.651Z,10.10
2023-01-01T04:15:15.197Z,10.10
2023-01-01T04:17:41.939Z,10.20
2023-01-01T04:20:09.643Z,10.20
2023-01-01T04:22:36.465Z,10.10
2023-01-01T04:25:03.716Z,10.10
2023-01-01T04:27:30.554Z,10.10
2023-01-01T04:29:57.306Z,10.10
2023-01-01T04:32:24.244Z,10.20
2023-01-01T04:34:50.952Z,10.20
2023-01-01T04:37:17.942Z,10.20
2023-01-01T04:39:44.654Z,10.10
2023-01-01T04:42:11.553Z,10.10
2023-01-01T04:44:38.222Z,10.20
2023-01-01T04:47:05.503Z,9.90
2023-01-01T04:49:32.364Z,9.80
2023-01-01T04:51:59.033Z,9.60
2023-01-01T04:54:25.857Z,9.60
2023-01-01T04:56:52.644Z,9.60
2023-01-01T04:59:19.366Z,9.40
2023-01-01T05:01:46.228Z,9.50
2023-01-01T05:04:15.255Z,9.50
2023-01-01T05:06:42.739Z,9.50
2023-01-01T05:09:10.290Z,9.50
2023-01-01T05:11:37.037Z,9.60
2023-01-01T05:14:04.250Z,9.60
2023-01-01T05:16:37.548Z,9.60
2023-01-01T05:19:05.172Z,9.50
2023-01-01T05:21:34.995Z,9.40
2023-01-01T05:24:04.607Z,9.50
2023-01-01T05:26:35.372Z,9.60
2023-01-01T05:29:02.327Z,9.70
2023-01-01T05:31:31.704Z,9.90
2023-01-01T05:36:38.594Z,10.00
2023-01-01T05:39:07.614Z,10.10
2023-01-01T05:41:37.233Z,10.00
2023-01-01T05:44:06.051Z,10.00
2023-01-01T05:46:33.370Z,10.10
2023-01-01T05:49:00.315Z,10.10
2023-01-01T05:51:28.805Z,10.10
2023-01-01T05:53:56.549Z,10.10
2023-01-01T05:56:24.159Z,10.20
2023-01-01T05:58:51.170Z,10.10
2023-01-01T06:01:26.592Z,10.20
2023-01-01T06:03:55.261Z,10.00
2023-01-01T06:06:25.270Z,10.00
2023-01-01T06:08:53.912Z,10.00
2023-01-01T06:11:21.219Z,10.00
2023-01-01T06:13:48.504Z,9.80
2023-01-01T06:16:15.398Z,9.70
2023-01-01T06:18:42.210Z,9.60
2023-01-01T06:21:14.908Z,9.40
2023-01-01T06:23:41.922Z,9.40
2023-01-01T06:26:17.839Z,9.50
2023-01-01T06:28:45.449Z,9.50
2023-01-01T06:31:14.842Z,9.70
2023-01-01T06:33:41.967Z,9.80
2023-01-01T06:36:11.006Z,9.80
2023-01-01T06:38:40.694Z,9.80
2023-01-01T06:41:16.748Z,9.90
2023-01-01T06:43:43.706Z,9.90
2023-01-01T06:46:10.344Z,9.70
2023-01-01T06:48:37.068Z,9.60
2023-01-01T06:51:13.203Z,9.70
2023-01-01T06:53:40.278Z,9.80
2023-01-01T06:56:07.417Z,9.80
2023-01-01T06:58:34.487Z,9.90
2023-01-01T07:01:11.161Z,9.90
2023-01-01T07:03:39.205Z,10.00
2023-01-01T07:06:07.561Z,10.00
2023-01-01T07:08:35.242Z,9.90
2023-01-01T07:11:02.502Z,9.90
2023-01-01T07:13:30.412Z,9.90
2023-01-01T07:15:57.472Z,9.90
2023-01-01T07:18:25.998Z,10.00
2023-01-01T07:20:58.533Z,9.90
2023-01-01T07:23:26.820Z,9.80
2023-01-01T07:25:54.693Z,9.80
2023-01-01T07:28:22.486Z,9.90
2023-01-01T07:30:49.848Z,10.00
2023-01-01T07:33:19.137Z,10.10
2023-01-01T07:35:46.193Z,10.10
2023-01-01T07:38:14.019Z,9.80
2023-01-01T07:40:41.913Z,9.60
2023-01-01T07:43:08.940Z,9.70
2023-01-01T07:45:36.011Z,9.90
2023-01-01T07:48:02.837Z,9.90
2023-01-01T07:50:32.367Z,9.80
2023-01-01T07:52:59.279Z,9.70
2023-01-01T07:55:26.950Z,9.50
2023-01-01T07:57:53.784Z,9.30
2023-01-01T08:00:21.908Z,9.30
2023-01-01T08:02:49.295Z,9.20
2023-01-01T08:05:19.909Z,9.20
2023-01-01T08:07:51.498Z,9.30
2023-01-01T08:10:20.287Z,9.50
2023-01-01T08:12:47.715Z,9.40
2023-01-01T08:15:15.294Z,9.40
2023-01-01T08:17:46.447Z,9.60
2023-01-01T08:20:13.929Z,9.70
2023-01-01T08:22:40.810Z,9.90
2023-01-01T08:25:08.423Z,9.90
2023-01-01T08:27:35.137Z,10.00
2023-01-01T08:30:01.961Z,10.10
2023-01-01T08:32:28.769Z,10.20
2023-01-01T08:34:55.489Z,10.10
2023-01-01T08:37:23.367Z,10.20
2023-01-01T08:39:51.726Z,10.30
2023-01-01T08:42:18.575Z,10.40
2023-01-01T08:44:45.661Z,10.40
2023-01-01T08:47:24.237Z,10.40
2023-01-01T08:49:51.476Z,10.40
2023-01-01T08:52:18.992Z,10.40
2023-01-01T08:54:45.840Z,10.50
2023-01-01T08:57:12.958Z,10.50
2023-01-01T08:59:39.783Z,10.50
2023-01-01T09:02:08.513Z,10.60
2023-01-01T09:04:35.425Z,10.60
2023-01-01T09:07:02.136Z,10.70
2023-01-01T09:09:31.720Z,10.60
2023-01-01T09:12:04.031Z,10.50
2023-01-01T09:14:31.104Z,10.50
2023-01-01T09:16:57.825Z,10.60
2023-01-01T09:19:24.672Z,10.60
2023-01-01T09:21:51.931Z,10.60
2023-01-01T09:24:18.806Z,10.70
2023-01-01T09:26:46.013Z,10.70
2023-01-01T09:29:12.770Z,10.70
2023-01-01T09:31:39.519Z,10.70
2023-01-01T09:34:06.310Z,10.50
2023-01-01T09:36:33.955Z,10.40
2023-01-01T09:39:01.287Z,10.30
2023-01-01T09:41:34.405Z,10.30
2023-01-01T09:44:28.418Z,10.50
2023-01-01T09:47:00.583Z,10.60
2023-01-01T09:49:43.168Z,10.70
2023-01-01T09:52:13.788Z,10.70
2023-01-01T09:54:42.882Z,10.80
2023-01-01T09:57:19.865Z,10.60
2023-01-01T09:59:47.103Z,10.60
2023-01-01T10:02:32.384Z,10.30
2023-01-01T10:05:02.912Z,10.10
2023-01-01T10:07:40.595Z,10.10
2023-01-01T10:10:40.243Z,9.90
2023-01-01T10:13:28.654Z,9.90
2023-01-01T10:16:24.195Z,9.90
2023-01-01T10:18:56.197Z,10.10
2023-01-01T10:21:30.887Z,10.00
2023-01-01T10:24:33.721Z,10.10
2023-01-01T10:27:04.192Z,10.30
2023-01-01T10:29:50.252Z,10.60
2023-01-01T10:32:27.930Z,10.70
2023-01-01T10:34:55.737Z,10.70
2023-01-01T10:37:22.877Z,10.70
2023-01-01T10:39:50.419Z,10.70
2023-01-01T10:42:17.369Z,10.70
2023-01-01T10:44:44.205Z,10.70
2023-01-01T10:47:25.602Z,10.60
2023-01-01T10:50:07.917Z,10.80
2023-01-01T10:52:38.592Z,10.70
2023-01-01T10:55:06.634Z,10.50
2023-01-01T10:57:40.655Z,10.50
2023-01-01T11:00:25.816Z,10.60
2023-01-01T11:03:20.934Z,10.40
2023-01-01T11:06:04.870Z,10.20
2023-01-01T11:08:34.931Z,10.40
2023-01-01T11:11:03.189Z,10.50
2023-01-01T11:13:31.357Z,10.30
2023-01-01T11:15:58.801Z,10.10
2023-01-01T11:18:36.276Z,10.10
2023-01-01T11:21:05.754Z,9.90
2023-01-01T11:23:35.810Z,9.90
2023-01-01T11:26:04.784Z,9.90
2023-01-01T11:28:34.912Z,9.90
2023-01-01T11:31:10.392Z,10.20
2023-01-01T11:33:45.206Z,10.30
2023-01-01T11:36:19.897Z,10.30
2023-01-01T11:38:51.371Z,10.40
2023-01-01T11:41:18.133Z,10.50
2023-01-01T11:43:47.112Z,10.40
2023-01-01T11:46:24.923Z,10.30
2023-01-01T11:48:54.178Z,10.30
2023-01-01T11:51:34.413Z,10.20
2023-01-01T11:54:38.258Z,10.30
2023-01-01T11:57:14.429Z,10.50
2023-01-01T12:00:14.890Z,10.40
2023-01-01T12:02:49.057Z,10.20
2023-01-01T12:05:34.688Z,10.00
2023-01-01T12:08:08.991Z,9.90
2023-01-01T12:10:57.773Z,10.00
2023-01-01T12:13:30.419Z,9.90
2023-01-01T12:16:12.244Z,10.00
2023-01-01T12:19:04.769Z,10.10
2023-01-01T12:21:34.903Z,10.20
2023-01-01T12:24:02.959Z,10.30
2023-01-01T12:26:54.393Z,10.40
2023-01-01T12:29:48.334Z,10.40
2023-01-01T12:32:39.868Z,10.50
2023-01-01T12:35:27.944Z,10.60
2023-01-01T12:37:57.897Z,10.70
2023-01-01T12:40:27.767Z,10.80
2023-01-01T12:43:01.783Z,10.90
2023-01-01T12:45:41.644Z,10.80
2023-01-01T12:48:37.928Z,10.50
2023-01-01T12:51:26.219Z,10.40
2023-01-01T12:54:01.736Z,10.30
2023-01-01T12:56:28.481Z,10.20
2023-01-01T12:59:17.385Z,10.30
2023-01-01T13:01:45.357Z,10.50
2023-01-01T13:04:20.988Z,10.60
2023-01-01T13:07:11.721Z,10.70
2023-01-01T13:09:44.685Z,10.60
2023-01-01T13:12:32.926Z,10.50
2023-01-01T13:15:00.045Z,10.60
2023-01-01T13:17:29.985Z,10.50
2023-01-01T13:20:12.041Z,10.60
2023-01-01T13:22:42.874Z,10.60
2023-01-01T13:25:10.805Z,10.70
2023-01-01T13:28:04.641Z,10.80
2023-01-01T13:30:38.032Z,10.90
2023-01-01T13:33:35.092Z,10.90
2023-01-01T13:36:08.374Z,10.70
2023-01-01T13:38:54.960Z,10.80
2023-01-01T13:41:35.634Z,10.90
2023-01-01T13:44:05.169Z,10.80
2023-01-01T13:46:44.166Z,10.80
2023-01-01T13:50:02.565Z,10.90
2023-01-01T13:52:55.657Z,10.90
2023-01-01T13:55:55.797Z,10.90
2023-01-01T13:58:50.246Z,10.90
2023-01-01T14:01:38.355Z,10.80
2023-01-01T14:04:13.125Z,10.80
2023-01-01T14:06:43.729Z,10.80
2023-01-01T14:09:15.885Z,10.60
2023-01-01T14:11:42.820Z,10.60
2023-01-01T14:14:28.376Z,10.50
2023-01-01T14:17:01.812Z,10.60
2023-01-01T14:19:29.580Z,10.70
2023-01-01T14:21:57.062Z,10.80
2023-01-01T14:24:25.259Z,10.80
2023-01-01T14:26:54.828Z,10.60
2023-01-01T14:29:30.440Z,10.40
2023-01-01T14:32:02.637Z,10.40
2023-01-01T14:34:32.360Z,10.50
2023-01-01T14:37:02.152Z,10.60
2023-01-01T14:39:34.202Z,10.50
2023-01-01T14:42:04.898Z,10.50
2023-01-01T14:44:37.142Z,10.50
2023-01-01T14:47:05.508Z,10.40
2023-01-01T14:49:38.946Z,10.50
2023-01-01T14:52:26.441Z,10.50
2023-01-01T14:54:56.217Z,10.60
2023-01-01T14:57:34.520Z,10.60
2023-01-01T15:00:24.782Z,10.70
2023-01-01T15:02:51.542Z,10.80
2023-01-01T15:05:34.743Z,10.90
2023-01-01T15:08:05.085Z,10.80
2023-01-01T15:10:35.663Z,10.90
2023-01-01T15:13:06.586Z,10.80
2023-01-01T15:15:44.586Z,10.70
2023-01-01T15:18:43.323Z,10.50
2023-01-01T15:21:45.603Z,10.60
2023-01-01T15:24:17.584Z,10.50
2023-01-01T15:26:50.810Z,10.60
2023-01-01T15:29:53.575Z,10.60
2023-01-01T15:32:29.240Z,10.60
2023-01-01T15:34:56.947Z,10.60
2023-01-01T15:37:52.550Z,10.70
2023-01-01T15:40:19.335Z,10.70
2023-01-01T15:43:05.544Z,10.70
2023-01-01T15:45:35.812Z,10.60
2023-01-01T15:48:37.287Z,10.70
2023-01-01T15:51:12.027Z,10.70
2023-01-01T15:53:53.131Z,10.70
2023-01-01T15:56:22.442Z,10.70
2023-01-01T15:59:05.264Z,10.70
2023-01-01T16:01:38.528Z,10.70
2023-01-01T16:04:11.198Z,10.70
2023-01-01T16:06:49.499Z,10.80
2023-01-01T16:09:17.854Z,10.70
2023-01-01T16:11:45.034Z,10.70
2023-01-01T16:14:12.236Z,10.60
2023-01-01T16:16:43.101Z,10.60
2023-01-01T16:19:21.117Z,10.70
2023-01-01T16:21:47.851Z,10.70
2023-01-01T16:24:16.794Z,10.80
2023-01-01T16:26:43.651Z,10.80
2023-01-01T16:29:10.718Z,10.80
2023-01-01T16:31:37.955Z,10.80
2023-01-01T16:34:05.322Z,10.90
2023-01-01T16:36:32.271Z,10.90
2023-01-01T16:38:59.537Z,10.80
2023-01-01T16:41:28.858Z,10.90
2023-01-01T16:43:55.889Z,10.90
2023-01-01T16:46:22.799Z,10.80
2023-01-01T16:48:49.558Z,10.80
2023-01-01T16:51:23.056Z,10.80
2023-01-01T16:53:49.822Z,10.80
2023-01-01T16:56:17.021Z,10.80
2023-01-01T16:58:55.340Z,10.90
2023-01-01T17:01:25.120Z,10.90
2023-01-01T17:03:52.568Z,10.90
2023-01-01T17:06:19.673Z,11.00
2023-01-01T17:08:46.421Z,11.00
2023-01-01T17:11:18.389Z,10.90
2023-01-01T17:13:47.871Z,10.90
2023-01-01T17:16:25.919Z,11.00
2023-01-01T17:21:41.839Z,11.00
2023-01-01T17:24:08.964Z,11.00
2023-01-01T17:26:35.935Z,11.00
2023-01-01T17:29:03.418Z,10.90
2023-01-01T17:31:30.899Z,11.00
2023-01-01T17:33:57.755Z,11.00
2023-01-01T17:36:27.082Z,11.00
2023-01-01T17:38:54.592Z,11.00
2023-01-01T17:41:21.585Z,11.00
2023-01-01T17:43:50.800Z,10.90
2023-01-01T17:46:24.929Z,10.90
2023-01-01T17:48:52.445Z,11.00
2023-01-01T17:51:19.439Z,11.00
2023-01-01T17:53:46.745Z,10.80
2023-01-01T17:56:15.522Z,10.80
2023-01-01T17:58:44.331Z,10.90
2023-01-01T18:01:11.329Z,11.00
2023-01-01T18:03:40.270Z,11.00
2023-01-01T18:06:07.397Z,11.00
2023-01-01T18:08:34.184Z,11.00
2023-01-01T18:11:01.096Z,11.00
2023-01-01T18:13:27.867Z,11.00
2023-01-01T18:15:54.607Z,10.90
2023-01-01T18:18:21.363Z,10.90
2023-01-01T18:20:48.099Z,10.90
2023-01-01T18:23:14.969Z,11.00
2023-01-01T18:25:41.857Z,11.00
2023-01-01T18:28:10.418Z,11.00
2023-01-01T18:30:37.263Z,11.00
2023-01-01T18:33:03.981Z,11.00
2023-01-01T18:35:30.662Z,11.00
2023-01-01T18:37:57.557Z,11.00
2023-01-01T18:40:24.408Z,11.00
2023-01-01T18:43:01.948Z,11.00
2023-01-01T18:45:28.733Z,11.00
2023-01-01T18:47:55.559Z,11.00
2023-01-01T18:50:29.294Z,11.00
2023-01-01T18:53:18.790Z,11.00
2023-01-01T18:55:47.926Z,10.90
2023-01-01T18:58:18.635Z,10.90
2023-01-01T19:00:45.442Z,11.00
2023-01-01T19:03:36.055Z,11.00
2023-01-01T19:06:24.336Z,11.10
2023-01-01T19:08:53.046Z,11.10
2023-01-01T19:11:21.943Z,11.00
2023-01-01T19:13:51.056Z,11.00
2023-01-01T19:16:30.416Z,11.00
2023-01-01T19:19:12.557Z,11.10
2023-01-01T19:21:41.173Z,11.10
2023-01-01T19:24:22.268Z,11.10
2023-01-01T19:26:57.223Z,10.90
2023-01-01T19:29:25.347Z,10.90
2023-01-01T19:31:56.826Z,11.00
2023-01-01T19:34:24.623Z,11.00
2023-01-01T19:36:51.670Z,11.00
2023-01-01T19:39:18.692Z,11.00
2023-01-01T19:41:45.672Z,11.00
2023-01-01T19:44:12.362Z,11.00
2023-01-01T19:46:39.293Z,11.00
2023-01-01T19:49:06.091Z,10.90
2023-01-01T19:51:32.844Z,10.70
2023-01-01T19:53:59.577Z,10.60
2023-01-01T19:56:26.380Z,10.70
2023-01-01T19:58:53.120Z,10.80
2023-01-01T20:01:20.142Z,10.70
2023-01-01T20:03:56.470Z,10.70
2023-01-01T20:06:24.741Z,10.60
2023-01-01T20:08:52.088Z,10.70
2023-01-01T20:11:20.535Z,10.80
2023-01-01T20:13:47.470Z,10.90
2023-01-01T20:16:14.593Z,10.90
2023-01-01T20:18:41.368Z,10.90
2023-01-01T20:21:27.177Z,10.90
2023-01-01T20:23:55.069Z,10.90
2023-01-01T20:26:23.714Z,10.80
2023-01-01T20:29:09.400Z,10.80
2023-01-01T20:31:36.356Z,10.80
2023-01-01T20:34:03.381Z,10.70
2023-01-01T20:36:48.874Z,10.60
2023-01-01T20:39:15.548Z,10.70
2023-01-01T20:41:42.389Z,10.70
2023-01-01T20:44:09.147Z,10.80
2023-01-01T20:46:38.206Z,10.90
2023-01-01T20:49:05.144Z,10.90
2023-01-01T20:51:32.021Z,10.90
2023-01-01T20:53:58.823Z,10.90
2023-01-01T20:56:25.786Z,10.90
2023-01-01T20:58:57.583Z,10.90
2023-01-01T21:01:27.086Z,10.90
2023-01-01T21:03:54.313Z,11.00
2023-01-01T21:06:24.427Z,11.00
2023-01-01T21:08:52.201Z,11.00
2023-01-01T21:11:19.395Z,11.00
2023-01-01T21:13:47.059Z,11.00
2023-01-01T21:16:37.026Z,10.90
2023-01-01T21:19:08.212Z,10.90
2023-01-01T21:21:40.921Z,10.80
2023-01-01T21:24:23.376Z,10.80
2023-01-01T21:26:53.508Z,10.90
2023-01-01T21:29:22.511Z,10.90
2023-01-01T21:31:56.975Z,10.90
2023-01-01T21:34:36.756Z,10.90
2023-01-01T21:37:48.681Z,10.90
2023-01-01T21:40:30.930Z,10.90
2023-01-01T21:43:13.027Z,10.80
2023-01-01T21:45:49.070Z,10.80
2023-01-01T21:48:19.049Z,10.60
2023-01-01T21:50:47.676Z,10.50
2023-01-01T21:53:24.271Z,10.50
2023-01-01T21:55:53.556Z,10.50
2023-01-01T21:59:01.978Z,10.50
2023-01-01T22:01:35.952Z,10.40
2023-01-01T22:04:15.183Z,10.40
2023-01-01T22:06:48.621Z,10.50
2023-01-01T22:09:31.505Z,10.50
2023-01-01T22:12:06.507Z,10.60
2023-01-01T22:14:40.008Z,10.70
2023-01-01T22:17:45.047Z,10.70
2023-01-01T22:20:25.493Z,10.80
2023-01-01T22:22:52.227Z,10.80
2023-01-01T22:25:28.398Z,10.80
2023-01-01T22:27:55.597Z,10.80
2023-01-01T22:30:37.676Z,10.80
2023-01-01T22:33:17.002Z,10.70
2023-01-01T22:35:44.201Z,10.70
2023-01-01T22:38:18.020Z,10.80
2023-01-01T22:40:49.320Z,10.80
2023-01-01T22:43:19.179Z,10.80
2023-01-01T22:45:49.894Z,10.80
2023-01-01T22:48:46.286Z,10.90
2023-01-01T22:51:24.540Z,10.70
2023-01-01T22:53:51.512Z,10.60
2023-01-01T22:56:18.220Z,10.60
2023-01-01T22:58:45.144Z,10.70
2023-01-01T23:01:11.889Z,10.80
2023-01-01T23:03:38.736Z,10.70
2023-01-01T23:06:06.245Z,10.80
2023-01-01T23:08:33.032Z,10.60
2023-01-01T23:11:00.489Z,10.70
2023-01-01T23:13:45.987Z,10.60
2023-01-01T23:16:12.890Z,10.40
2023-01-01T23:18:39.736Z,10.30
2023-01-01T23:21:26.271Z,10.50
2023-01-01T23:23:55.524Z,10.60
2023-01-01T23:26:22.540Z,10.60
2023-01-01T23:28:49.447Z,10.50
2023-01-01T23:31:24.813Z,10.50
2023-01-01T23:33:53.506Z,10.40
2023-01-01T23:36:20.370Z,10.40
2023-01-01T23:38:47.187Z,10.50
2023-01-01T23:41:14.251Z,10.50
2023-01-01T23:43:43.560Z,10.60
2023-01-01T23:46:12.793Z,10.50
2023-01-01T23:48:40.611Z,10.60
2023-01-01T23:51:07.550Z,10.70
2023-01-01T23:53:34.317Z,10.70
2023-01-01T23:56:01.255Z,10.80
2023-01-01T23:58:28.089Z,10.80
